createdAt,value
2017-12-01T00:00:44.802Z,13.23
2017-12-01T00:03:11.771Z,12.77
2017-12-01T00:05:38.724Z,13.13
2017-12-01T00:08:05.647Z,11.90
2017-12-01T00:10:31.963Z,13.27
2017-12-01T00:12:58.180Z,13.17
2017-12-01T00:15:24.441Z,12.83
2017-12-01T00:17:51.401Z,13.30
2017-12-01T00:20:20.260Z,13.33
2017-12-01T00:22:47.254Z,13.33
2017-12-01T00:25:13.894Z,12.80
2017-12-01T00:27:41.292Z,12.83
2017-12-01T00:30:07.559Z,13.00
2017-12-01T00:32:34.569Z,12.60
2017-12-01T00:35:00.843Z,13.30
2017-12-01T00:37:27.095Z,13.27
2017-12-01T00:39:53.344Z,12.13
2017-12-01T00:42:19.612Z,13.43
2017-12-01T00:44:46.564Z,12.50
2017-12-01T00:47:13.599Z,13.87
2017-12-01T00:49:39.823Z,13.43
2017-12-01T00:52:07.223Z,12.90
2017-12-01T00:54:33.476Z,12.60
2017-12-01T00:56:59.734Z,12.40
2017-12-01T00:59:25.999Z,13.00
2017-12-01T01:01:52.302Z,13.70
2017-12-01T01:04:19.302Z,12.57
2017-12-01T01:06:45.648Z,13.00
2017-12-01T01:09:11.902Z,13.03
2017-12-01T01:11:38.154Z,12.53
2017-12-01T01:14:05.119Z,12.70
2017-12-01T01:16:31.381Z,13.80
2017-12-01T01:18:57.674Z,13.83
2017-12-01T01:21:23.952Z,13.93
2017-12-01T01:23:50.242Z,13.50
2017-12-01T01:26:16.481Z,12.20
2017-12-01T01:28:42.746Z,13.73
2017-12-01T01:31:09.026Z,13.33
2017-12-01T01:33:35.352Z,13.83
2017-12-01T01:36:01.623Z,15.90
2017-12-01T01:38:27.939Z,13.63
2017-12-01T01:40:54.222Z,13.07
2017-12-01T01:43:21.223Z,12.63
2017-12-01T01:45:47.534Z,11.87
2017-12-01T01:48:13.877Z,13.30
2017-12-01T01:50:40.657Z,13.37
2017-12-01T01:53:10.048Z,13.20
2017-12-01T01:55:36.358Z,11.90
2017-12-01T01:58:02.626Z,13.20
2017-12-01T02:00:29.658Z,12.90
2017-12-01T02:02:55.984Z,13.57
2017-12-01T02:05:22.287Z,11.73
2017-12-01T02:07:50.231Z,12.43
2017-12-01T02:10:16.502Z,13.30
2017-12-01T02:12:42.738Z,12.23
2017-12-01T02:15:09.089Z,13.67
2017-12-01T02:17:36.106Z,13.00
2017-12-01T02:20:02.417Z,13.13
2017-12-01T02:22:28.671Z,13.20
2017-12-01T02:24:55.035Z,12.43
2017-12-01T02:27:22.083Z,15.03
2017-12-01T02:29:49.099Z,13.70
2017-12-01T02:32:16.151Z,13.23
2017-12-01T02:34:42.407Z,13.40
2017-12-01T02:37:09.446Z,13.57
2017-12-01T02:39:36.511Z,13.30
2017-12-01T02:42:02.863Z,11.77
2017-12-01T02:44:29.133Z,12.50
2017-12-01T02:46:55.407Z,12.90
2017-12-01T02:49:21.687Z,12.43
2017-12-01T02:51:47.974Z,13.53
2017-12-01T02:54:14.290Z,13.40
2017-12-01T02:56:40.484Z,12.67
2017-12-01T02:59:06.771Z,14.00
2017-12-01T03:01:33.059Z,12.70
2017-12-01T03:04:00.110Z,12.53
2017-12-01T03:06:27.143Z,12.70
2017-12-01T03:08:53.471Z,13.20
2017-12-01T03:11:19.755Z,11.93
2017-12-01T03:13:46.080Z,14.27
2017-12-01T03:16:12.342Z,14.30
2017-12-01T03:18:38.623Z,14.10
2017-12-01T03:21:04.910Z,12.93
2017-12-01T03:23:31.226Z,12.70
2017-12-01T03:25:57.503Z,12.60
2017-12-01T03:28:23.851Z,12.30
2017-12-01T03:30:50.139Z,12.97
2017-12-01T03:33:16.434Z,12.40
2017-12-01T03:35:42.734Z,12.60
2017-12-01T03:38:08.993Z,13.67
2017-12-01T03:40:35.283Z,11.70
2017-12-01T03:43:02.281Z,13.00
2017-12-01T03:45:28.600Z,12.83
2017-12-01T03:47:54.864Z,12.50
2017-12-01T03:50:21.139Z,13.57
2017-12-01T03:52:47.381Z,11.80
2017-12-01T03:55:13.703Z,11.87
2017-12-01T03:57:39.983Z,11.57
2017-12-01T04:00:06.226Z,11.43
2017-12-01T04:02:33.259Z,12.07
2017-12-01T04:05:00.250Z,12.40
2017-12-01T04:07:26.555Z,13.60
2017-12-01T04:09:53.615Z,12.80
2017-12-01T04:12:19.879Z,11.70
2017-12-01T04:14:46.150Z,13.33
2017-12-01T04:17:12.574Z,13.37
2017-12-01T04:19:38.897Z,11.43
2017-12-01T04:22:05.962Z,10.80
2017-12-01T04:24:33.007Z,11.83
2017-12-01T04:27:00.075Z,11.30
2017-12-01T04:29:26.317Z,12.27
2017-12-01T04:31:52.588Z,13.93
2017-12-01T04:34:18.830Z,13.90
2017-12-01T04:36:45.075Z,14.10
2017-12-01T04:39:12.140Z,12.93
2017-12-01T04:41:39.106Z,13.00
2017-12-01T04:44:05.402Z,13.53
2017-12-01T04:46:32.554Z,13.70
2017-12-01T04:48:58.834Z,13.53
2017-12-01T04:51:25.124Z,13.53
2017-12-01T04:53:52.193Z,13.53
2017-12-01T04:56:18.492Z,13.63
2017-12-01T04:58:45.563Z,13.37
2017-12-01T05:01:11.882Z,13.33
2017-12-01T05:03:38.211Z,13.90
2017-12-01T05:06:04.479Z,13.10
2017-12-01T05:08:31.556Z,13.67
2017-12-01T05:10:57.833Z,13.33
2017-12-01T05:13:24.130Z,14.63
2017-12-01T05:15:51.080Z,13.40
2017-12-01T05:18:18.084Z,13.00
2017-12-01T05:20:44.402Z,12.73
2017-12-01T05:23:10.645Z,13.60
2017-12-01T05:25:36.954Z,13.00
2017-12-01T05:28:03.210Z,12.30
2017-12-01T05:30:29.516Z,15.47
2017-12-01T05:32:55.822Z,13.83
2017-12-01T05:35:22.102Z,13.80
2017-12-01T05:37:48.409Z,13.17
2017-12-01T05:43:08.474Z,12.43
2017-12-01T05:45:39.203Z,12.27
2017-12-01T05:48:06.281Z,12.00
2017-12-01T05:50:32.558Z,11.50
2017-12-01T05:52:58.843Z,12.03
2017-12-01T05:55:25.142Z,11.80
2017-12-01T05:57:52.171Z,12.30
2017-12-01T06:00:18.436Z,12.37
2017-12-01T06:02:44.637Z,11.07
2017-12-01T06:05:10.927Z,11.93
2017-12-01T06:07:37.172Z,13.07
2017-12-01T06:10:03.463Z,12.73
2017-12-01T06:12:29.722Z,12.57
2017-12-01T06:14:55.973Z,12.83
2017-12-01T06:17:22.213Z,12.20
2017-12-01T06:19:48.697Z,10.43
2017-12-01T06:22:14.981Z,10.60
2017-12-01T06:24:42.020Z,11.77
2017-12-01T06:27:08.365Z,11.23
2017-12-01T06:29:35.362Z,11.03
2017-12-01T06:32:01.701Z,13.00
2017-12-01T06:34:28.039Z,12.70
2017-12-01T06:36:54.310Z,12.10
2017-12-01T06:39:21.358Z,11.07
2017-12-01T06:41:48.376Z,11.13
2017-12-01T06:44:14.678Z,12.20
2017-12-01T06:46:40.959Z,11.30
2017-12-01T06:49:07.995Z,11.40
2017-12-01T06:51:34.250Z,11.47
2017-12-01T06:54:00.537Z,12.43
2017-12-01T06:56:26.866Z,11.70
2017-12-01T06:58:53.175Z,11.60
2017-12-01T07:01:19.440Z,12.83
2017-12-01T07:03:45.759Z,11.77
2017-12-01T07:06:12.858Z,11.20
2017-12-01T07:08:39.203Z,11.33
2017-12-01T07:11:05.480Z,11.20
2017-12-01T07:13:31.639Z,10.30
2017-12-01T07:15:57.862Z,11.70
2017-12-01T07:18:24.098Z,11.43
2017-12-01T07:20:50.360Z,11.90
2017-12-01T07:23:16.576Z,11.27
2017-12-01T07:25:42.847Z,11.10
2017-12-01T07:28:09.868Z,11.10
2017-12-01T07:30:36.097Z,10.40
2017-12-01T07:33:02.323Z,10.77
2017-12-01T07:35:28.580Z,10.27
2017-12-01T07:37:54.913Z,10.57
2017-12-01T07:40:21.936Z,9.87
2017-12-01T07:42:48.226Z,12.50
2017-12-01T07:45:20.468Z,10.10
2017-12-01T07:47:47.504Z,11.30
2017-12-01T07:50:14.569Z,10.37
2017-12-01T07:52:40.869Z,11.20
2017-12-01T07:55:07.197Z,10.60
2017-12-01T07:57:33.449Z,11.40
2017-12-01T08:00:00.422Z,11.03
2017-12-01T08:02:26.650Z,11.60
2017-12-01T08:04:52.884Z,14.77
2017-12-01T08:07:19.097Z,16.10
2017-12-01T08:09:46.069Z,18.30
2017-12-01T08:12:12.327Z,19.77
2017-12-01T08:14:38.592Z,18.13
2017-12-01T08:17:17.679Z,16.57
2017-12-01T08:19:43.921Z,17.40
2017-12-01T08:25:27.855Z,16.27
2017-12-01T08:27:54.076Z,17.20
2017-12-01T08:30:20.337Z,16.30
2017-12-01T08:32:46.563Z,15.27
2017-12-01T08:35:12.739Z,14.53
2017-12-01T08:37:39.704Z,16.33
2017-12-01T08:40:05.944Z,15.17
2017-12-01T08:42:32.225Z,16.40
2017-12-01T08:44:58.507Z,15.30
2017-12-01T08:47:24.810Z,14.07
2017-12-01T08:49:51.123Z,15.70
2017-12-01T08:52:18.162Z,15.53
2017-12-01T08:54:45.122Z,15.97
2017-12-01T08:57:12.141Z,16.37
2017-12-01T08:59:38.425Z,15.90
2017-12-01T09:02:04.735Z,14.37
2017-12-01T09:04:30.984Z,15.10
2017-12-01T09:06:57.245Z,15.60
2017-12-01T09:09:24.332Z,16.87
2017-12-01T09:11:50.597Z,15.50
2017-12-01T09:14:16.955Z,15.07
2017-12-01T09:16:43.958Z,15.60
2017-12-01T09:19:10.283Z,14.87
2017-12-01T09:21:36.564Z,15.70
2017-12-01T09:24:02.842Z,16.13
2017-12-01T09:26:29.135Z,17.03
2017-12-01T09:28:55.451Z,17.77
2017-12-01T09:31:21.750Z,16.83
2017-12-01T09:33:48.025Z,17.80
2017-12-01T09:36:15.042Z,18.13
2017-12-01T09:38:41.358Z,14.90
2017-12-01T09:41:07.687Z,16.83
2017-12-01T09:43:34.027Z,14.53
2017-12-01T09:46:00.344Z,16.93
2017-12-01T09:48:26.653Z,16.53
2017-12-01T09:50:52.870Z,16.40
2017-12-01T09:53:19.896Z,17.17
2017-12-01T10:04:52.893Z,15.30
2017-12-01T10:07:19.145Z,16.60
2017-12-01T10:09:45.368Z,15.60
2017-12-01T10:12:11.674Z,16.07
2017-12-01T10:14:37.940Z,16.83
2017-12-01T10:17:04.162Z,16.20
2017-12-01T10:19:30.443Z,16.27
2017-12-01T10:21:57.478Z,15.50
2017-12-01T10:24:23.747Z,15.50
2017-12-01T10:26:49.982Z,16.80
2017-12-01T10:29:16.221Z,18.40
2017-12-01T10:31:42.515Z,17.00
2017-12-01T10:34:09.560Z,16.03
2017-12-01T10:36:36.599Z,15.50
2017-12-01T10:39:03.632Z,13.83
2017-12-01T10:41:29.868Z,15.30
2017-12-01T10:43:56.158Z,16.47
2017-12-01T10:46:22.487Z,16.83
2017-12-01T10:48:48.735Z,16.23
2017-12-01T10:51:14.968Z,15.73
2017-12-01T10:53:41.223Z,16.37
2017-12-01T10:56:08.291Z,14.30
2017-12-01T10:58:35.183Z,15.00
2017-12-01T11:01:01.414Z,14.20
2017-12-01T11:03:27.635Z,14.33
2017-12-01T11:05:53.899Z,15.53
2017-12-01T11:08:20.853Z,15.13
2017-12-01T11:10:47.770Z,15.20
2017-12-01T11:13:13.952Z,16.07
2017-12-01T11:15:40.156Z,13.33
2017-12-01T11:18:07.195Z,14.60
2017-12-01T11:20:34.198Z,15.50
2017-12-01T11:23:01.446Z,16.00
2017-12-01T11:25:27.694Z,15.97
2017-12-01T11:27:53.933Z,15.30
2017-12-01T11:30:20.210Z,15.87
2017-12-01T11:32:46.440Z,15.90
2017-12-01T11:35:12.657Z,15.50
2017-12-01T11:37:38.893Z,16.47
2017-12-01T11:40:05.167Z,14.97
2017-12-01T11:42:32.105Z,15.67
2017-12-01T11:44:58.387Z,14.50
2017-12-01T11:47:24.655Z,15.90
2017-12-01T11:49:50.905Z,14.97
2017-12-01T11:52:17.207Z,14.20
2017-12-01T11:54:43.471Z,15.77
2017-12-01T11:57:09.791Z,15.13
2017-12-01T11:59:36.004Z,14.67
2017-12-01T12:02:02.275Z,15.03
2017-12-01T12:04:29.282Z,14.00
2017-12-01T12:06:55.585Z,14.33
2017-12-01T12:09:21.863Z,13.37
2017-12-01T12:11:48.165Z,12.70
2017-12-01T12:14:14.437Z,12.37
2017-12-01T12:16:40.775Z,11.17
2017-12-01T12:19:08.576Z,13.23
2017-12-01T12:21:34.910Z,12.97
2017-12-01T12:24:01.188Z,15.57
2017-12-01T12:26:27.478Z,17.00
2017-12-01T12:28:53.826Z,17.50
2017-12-01T12:31:20.069Z,17.93
2017-12-01T12:33:46.435Z,15.90
2017-12-01T12:36:12.672Z,17.30
2017-12-01T12:38:38.955Z,18.40
2017-12-01T12:41:05.258Z,17.70
2017-12-01T12:43:31.619Z,18.10
2017-12-01T12:45:57.916Z,18.13
2017-12-01T12:48:24.232Z,17.53
2017-12-01T12:50:50.528Z,18.17
2017-12-01T12:53:17.600Z,17.53
2017-12-01T12:55:43.979Z,18.20
2017-12-01T12:58:10.336Z,16.60
2017-12-01T13:00:36.689Z,17.33
2017-12-01T13:03:02.978Z,17.20
2017-12-01T13:05:30.020Z,17.30
2017-12-01T13:07:56.371Z,16.30
2017-12-01T13:10:23.386Z,16.23
2017-12-01T13:12:49.713Z,15.60
2017-12-01T13:15:15.981Z,16.63
2017-12-01T13:17:43.027Z,16.20
2017-12-01T13:20:10.079Z,14.90
2017-12-01T13:22:37.069Z,14.77
2017-12-01T13:25:03.333Z,16.30
2017-12-01T13:27:29.599Z,14.70
2017-12-01T13:29:56.612Z,13.97
2017-12-01T13:32:22.871Z,13.50
2017-12-01T13:34:50.470Z,13.80
2017-12-01T13:37:16.794Z,14.17
2017-12-01T13:39:43.044Z,14.43
2017-12-01T13:42:09.440Z,13.20
2017-12-01T13:44:35.740Z,14.47
2017-12-01T13:47:02.791Z,15.00
2017-12-01T13:49:29.829Z,15.40
2017-12-01T13:51:56.098Z,16.97
2017-12-01T13:54:22.382Z,16.40
2017-12-01T13:56:48.710Z,15.47
2017-12-01T13:59:15.641Z,16.40
2017-12-01T14:01:41.942Z,14.70
2017-12-01T14:04:08.516Z,18.23
2017-12-01T14:06:34.784Z,16.70
2017-12-01T14:09:01.096Z,14.00
2017-12-01T14:11:27.668Z,14.73
2017-12-01T14:13:53.934Z,14.00
2017-12-01T14:16:20.162Z,14.20
2017-12-01T14:18:46.395Z,14.03
2017-12-01T14:21:12.715Z,13.03
2017-12-01T14:23:38.991Z,13.97
2017-12-01T14:26:05.928Z,13.67
2017-12-01T14:28:32.849Z,14.30
2017-12-01T14:30:59.126Z,13.30
2017-12-01T14:33:25.388Z,14.30
2017-12-01T14:35:51.659Z,13.80
2017-12-01T14:38:18.691Z,13.47
2017-12-01T14:40:45.666Z,14.23
2017-12-01T14:43:11.903Z,15.43
2017-12-01T14:45:38.212Z,15.60
2017-12-01T14:48:05.270Z,15.00
2017-12-01T14:50:31.529Z,14.50
2017-12-01T14:52:57.816Z,14.30
2017-12-01T14:55:24.931Z,14.70
2017-12-01T14:57:51.183Z,15.20
2017-12-01T15:00:18.170Z,13.77
2017-12-01T15:02:44.428Z,15.23
2017-12-01T15:05:10.704Z,15.33
2017-12-01T15:07:37.723Z,16.60
2017-12-01T15:10:03.978Z,15.27
2017-12-01T15:12:30.954Z,15.40
2017-12-01T15:14:57.188Z,15.93
2017-12-01T15:17:23.512Z,15.97
2017-12-01T15:19:49.709Z,16.50
2017-12-01T15:22:16.729Z,17.17
2017-12-01T15:24:43.737Z,17.63
2017-12-01T15:27:09.943Z,16.73
2017-12-01T15:29:36.191Z,17.23
2017-12-01T15:32:02.481Z,17.13
2017-12-01T15:34:29.587Z,16.90
2017-12-01T15:36:55.875Z,17.37
2017-12-01T15:39:22.867Z,18.20
2017-12-01T15:41:49.179Z,17.37
2017-12-01T15:44:15.460Z,16.90
2017-12-01T15:46:42.492Z,18.03
2017-12-01T15:49:08.718Z,16.50
2017-12-01T15:51:35.044Z,20.97
2017-12-01T15:54:01.308Z,21.93
2017-12-01T15:56:28.401Z,19.43
2017-12-01T15:58:54.654Z,17.20
2017-12-01T16:01:20.995Z,17.93
2017-12-01T16:03:47.272Z,17.57
2017-12-01T16:06:13.550Z,17.40
2017-12-01T16:08:39.923Z,16.80
2017-12-01T16:11:06.182Z,17.93
2017-12-01T16:13:32.539Z,15.83
2017-12-01T16:15:58.820Z,16.30
2017-12-01T16:18:25.092Z,16.90
2017-12-01T16:20:51.329Z,17.50
2017-12-01T16:23:17.623Z,16.37
2017-12-01T16:25:43.946Z,17.90
2017-12-01T16:28:10.277Z,18.33
2017-12-01T16:30:36.615Z,20.47
2017-12-01T16:33:08.443Z,24.47
2017-12-01T16:35:29.189Z,26.77
2017-12-01T16:37:55.514Z,25.83
2017-12-01T16:40:21.831Z,25.47
2017-12-01T16:42:48.074Z,26.13
2017-12-01T16:45:14.392Z,24.83
2017-12-01T16:47:40.675Z,23.03
2017-12-01T16:50:06.992Z,22.43
2017-12-01T16:52:33.339Z,22.33
2017-12-01T16:55:00.315Z,23.67
2017-12-01T16:57:26.573Z,22.50
2017-12-01T16:59:52.898Z,21.30
2017-12-01T17:02:19.151Z,21.23
2017-12-01T17:04:45.428Z,20.50
2017-12-01T17:07:11.776Z,23.20
2017-12-01T17:09:38.043Z,24.13
2017-12-01T17:12:04.356Z,19.70
2017-12-01T17:14:30.675Z,21.00
2017-12-01T17:16:56.939Z,22.10
2017-12-01T17:19:23.246Z,21.40
2017-12-01T17:21:49.552Z,21.40
2017-12-01T17:24:15.876Z,21.50
2017-12-01T17:26:42.187Z,21.97
2017-12-01T17:29:09.237Z,19.93
2017-12-01T17:31:36.239Z,19.70
2017-12-01T17:34:02.482Z,20.53
2017-12-01T17:36:28.791Z,18.27
2017-12-01T17:38:55.123Z,21.17
2017-12-01T17:41:21.422Z,22.47
2017-12-01T17:43:47.784Z,24.33
2017-12-01T17:46:14.112Z,25.47
2017-12-01T17:48:40.428Z,26.80
2017-12-01T17:51:06.747Z,24.33
2017-12-01T17:53:33.066Z,24.67
2017-12-01T17:55:59.385Z,22.47
2017-12-01T17:58:25.672Z,21.40
2017-12-01T18:00:51.936Z,22.00
2017-12-01T18:03:19.040Z,19.83
2017-12-01T18:05:45.337Z,19.90
2017-12-01T18:08:11.623Z,21.37
2017-12-01T18:10:37.956Z,20.03
2017-12-01T18:13:04.245Z,19.40
2017-12-01T18:15:30.554Z,17.17
2017-12-01T18:17:56.851Z,19.20
2017-12-01T18:20:23.090Z,19.30
2017-12-01T18:22:50.117Z,17.80
2017-12-01T18:25:16.471Z,18.40
2017-12-01T18:27:43.584Z,16.80
2017-12-01T18:30:09.840Z,16.83
2017-12-01T18:32:36.151Z,17.83
2017-12-01T18:35:02.710Z,19.07
2017-12-01T18:37:29.842Z,17.27
2017-12-01T18:39:56.153Z,17.53
2017-12-01T18:42:22.548Z,16.40
2017-12-01T18:44:49.008Z,18.10
2017-12-01T18:47:15.307Z,16.83
2017-12-01T18:49:42.378Z,17.77
2017-12-01T18:52:08.692Z,17.50
2017-12-01T18:54:34.984Z,17.67
2017-12-01T18:57:01.310Z,16.83
2017-12-01T18:59:27.607Z,17.17
2017-12-01T19:01:53.888Z,17.40
2017-12-01T19:04:20.571Z,18.00
2017-12-01T19:06:46.964Z,16.47
2017-12-01T19:09:13.961Z,17.40
2017-12-01T19:11:40.332Z,17.20
2017-12-01T19:14:06.631Z,19.20
2017-12-01T19:16:32.982Z,18.40
2017-12-01T19:18:59.336Z,20.77
2017-12-01T19:21:26.410Z,17.50
2017-12-01T19:23:52.763Z,20.73
2017-12-01T19:26:19.066Z,18.80
2017-12-01T19:28:49.106Z,19.93
2017-12-01T19:31:22.702Z,20.00
2017-12-01T19:33:50.937Z,20.33
2017-12-01T19:36:17.275Z,22.27
2017-12-01T19:38:44.327Z,20.60
2017-12-01T19:41:11.392Z,20.30
2017-12-01T19:43:37.699Z,20.27
2017-12-01T19:46:04.683Z,20.97
2017-12-01T19:48:30.983Z,20.40
2017-12-01T19:50:57.266Z,21.17
2017-12-01T19:53:23.586Z,18.30
2017-12-01T19:55:49.815Z,17.93
2017-12-01T19:58:16.148Z,20.40
2017-12-01T20:00:42.422Z,19.37
2017-12-01T20:03:09.467Z,18.90
2017-12-01T20:05:36.532Z,18.00
2017-12-01T20:08:02.822Z,18.87
2017-12-01T20:10:29.119Z,22.47
2017-12-01T20:12:55.380Z,21.67
2017-12-01T20:15:21.705Z,19.50
2017-12-01T20:17:48.043Z,19.60
2017-12-01T20:20:14.340Z,21.30
2017-12-01T20:22:40.660Z,20.60
2017-12-01T20:25:06.914Z,19.63
2017-12-01T20:27:33.226Z,19.53
2017-12-01T20:29:59.594Z,19.43
2017-12-01T20:32:25.849Z,22.07
2017-12-01T20:34:52.891Z,22.20
2017-12-01T20:37:20.586Z,22.00
2017-12-01T20:39:46.882Z,23.20
2017-12-01T20:42:14.008Z,22.17
2017-12-01T20:44:40.352Z,24.23
2017-12-01T20:47:07.392Z,29.67
2017-12-01T21:07:12.883Z,21.43
2017-12-01T21:09:39.148Z,23.37
2017-12-01T21:12:05.450Z,21.10
2017-12-01T21:14:32.533Z,21.87
2017-12-01T21:16:58.837Z,21.93
2017-12-01T21:19:25.925Z,24.50
2017-12-01T21:21:52.208Z,24.47
2017-12-01T21:24:18.595Z,24.50
2017-12-01T21:26:44.949Z,26.97
2017-12-01T21:29:11.207Z,25.47
2017-12-01T21:31:38.207Z,23.90
2017-12-01T21:34:04.546Z,28.13
2017-12-01T21:36:31.638Z,26.67
2017-12-01T21:38:58.710Z,26.60
2017-12-01T21:41:25.186Z,25.70
2017-12-01T21:43:51.531Z,24.07
2017-12-01T21:46:17.756Z,27.97
2017-12-01T21:48:43.954Z,25.93
2017-12-01T21:51:10.276Z,23.40
2017-12-01T21:53:36.564Z,25.60
2017-12-01T21:56:03.551Z,26.23
2017-12-01T21:58:29.758Z,23.13
2017-12-01T22:00:56.002Z,22.87
2017-12-01T22:03:22.243Z,20.50
2017-12-01T22:05:48.495Z,20.03
2017-12-01T22:08:14.679Z,18.73
2017-12-01T22:10:41.030Z,20.10
2017-12-01T22:13:07.372Z,18.30
2017-12-01T22:15:33.630Z,19.77
2017-12-01T22:18:00.001Z,20.33
2017-12-01T22:20:26.269Z,19.77
2017-12-01T22:22:52.568Z,19.13
2017-12-01T22:25:18.807Z,19.17
2017-12-01T22:27:45.190Z,17.90
2017-12-01T22:30:12.194Z,19.10
2017-12-01T22:32:38.513Z,20.33
2017-12-01T22:35:04.775Z,17.97
2017-12-01T22:37:31.794Z,18.30
2017-12-01T22:39:58.065Z,19.13
2017-12-01T22:42:25.108Z,19.00
2017-12-01T22:44:51.395Z,19.17
2017-12-01T22:47:17.679Z,17.60
2017-12-01T22:49:44.655Z,16.73
2017-12-01T22:52:10.983Z,18.20
2017-12-01T22:54:37.218Z,18.13
2017-12-01T22:57:03.464Z,16.47
2017-12-01T22:59:29.770Z,18.20
2017-12-01T23:01:55.987Z,21.87
2017-12-01T23:04:23.012Z,20.23
2017-12-01T23:06:50.004Z,18.17
2017-12-01T23:09:16.272Z,17.33
2017-12-01T23:11:42.566Z,18.13
2017-12-01T23:14:08.876Z,16.77
2017-12-01T23:16:35.137Z,17.17
2017-12-01T23:19:01.430Z,17.23
2017-12-01T23:21:27.627Z,19.40
2017-12-01T23:23:54.644Z,15.63
2017-12-01T23:26:20.874Z,18.03
2017-12-01T23:28:47.132Z,17.00
2017-12-01T23:31:13.386Z,16.40
2017-12-01T23:33:40.454Z,17.53
2017-12-01T23:36:06.734Z,16.83
2017-12-01T23:38:32.973Z,17.13
2017-12-01T23:41:00.020Z,16.60
2017-12-01T23:43:27.026Z,17.27
2017-12-01T23:45:53.269Z,17.80
2017-12-01T23:48:19.578Z,16.33
2017-12-01T23:50:45.900Z,18.00
2017-12-01T23:53:12.210Z,17.70
2017-12-01T23:55:38.507Z,18.70
2017-12-01T23:58:05.447Z,17.80
